createdAt,value
2018-09-20T00:00:08.705Z,2.47
2018-09-20T00:02:36.810Z,1.97
2018-09-20T00:05:05.322Z,2.90
2018-09-20T00:07:33.466Z,2.10
2018-09-20T00:10:01.698Z,2.40
2018-09-20T00:12:29.872Z,2.70
2018-09-20T00:14:57.948Z,2.40
2018-09-20T00:17:26.088Z,2.83
2018-09-20T00:19:54.287Z,2.40
2018-09-20T00:22:22.371Z,2.23
2018-09-20T00:24:50.482Z,2.37
2018-09-20T00:27:18.562Z,2.53
2018-09-20T00:29:46.992Z,2.20
2018-09-20T00:32:15.114Z,2.30
2018-09-20T00:34:43.854Z,2.70
2018-09-20T00:37:11.906Z,2.70
2018-09-20T00:39:40.015Z,2.63
2018-09-20T00:42:08.130Z,2.70
2018-09-20T00:44:36.220Z,3.00
2018-09-20T00:47:04.386Z,2.33
2018-09-20T00:49:32.458Z,1.97
2018-09-20T00:52:00.542Z,2.77
2018-09-20T00:54:28.962Z,2.93
2018-09-20T00:56:57.111Z,2.63
2018-09-20T00:59:25.178Z,2.77
2018-09-20T01:01:53.253Z,2.83
2018-09-20T01:04:21.354Z,2.37
2018-09-20T01:06:49.890Z,2.60
2018-09-20T01:09:17.958Z,2.70
2018-09-20T01:11:46.114Z,3.20
2018-09-20T01:14:14.261Z,2.57
2018-09-20T01:16:42.337Z,2.60
2018-09-20T01:19:10.530Z,2.53
2018-09-20T01:21:38.623Z,2.83
2018-09-20T01:24:06.775Z,2.60
2018-09-20T01:26:34.845Z,2.17
2018-09-20T01:29:03.054Z,2.30
2018-09-20T01:31:31.154Z,2.60
2018-09-20T01:33:59.274Z,2.17
2018-09-20T01:36:27.367Z,2.83
2018-09-20T01:38:55.586Z,2.50
2018-09-20T01:41:23.757Z,2.97
2018-09-20T01:43:52.015Z,3.07
2018-09-20T01:46:20.194Z,2.67
2018-09-20T01:48:48.266Z,2.63
2018-09-20T01:51:16.429Z,2.50
2018-09-20T01:53:44.522Z,2.87
2018-09-20T01:56:15.278Z,3.03
2018-09-20T01:58:44.173Z,2.73
2018-09-20T02:01:12.338Z,2.40
2018-09-20T02:03:40.490Z,3.17
2018-09-20T02:06:08.647Z,2.60
2018-09-20T02:08:36.713Z,2.77
2018-09-20T02:11:04.842Z,3.07
2018-09-20T02:13:32.916Z,2.87
2018-09-20T02:16:01.084Z,2.90
2018-09-20T02:18:29.236Z,2.60
2018-09-20T02:20:57.443Z,2.50
2018-09-20T02:23:25.602Z,2.60
2018-09-20T02:25:53.682Z,3.07
2018-09-20T02:28:21.791Z,2.50
2018-09-20T02:30:49.843Z,2.87
2018-09-20T02:33:17.942Z,2.13
2018-09-20T02:35:46.032Z,2.80
2018-09-20T02:38:14.212Z,2.67
2018-09-20T02:40:42.322Z,3.30
2018-09-20T02:43:10.421Z,2.40
2018-09-20T02:45:38.486Z,3.17
2018-09-20T02:48:06.614Z,2.77
2018-09-20T02:50:34.786Z,2.73
2018-09-20T02:53:02.847Z,2.67
2018-09-20T02:55:30.938Z,2.77
2018-09-20T02:57:59.214Z,2.87
2018-09-20T03:00:27.315Z,3.30
2018-09-20T03:02:55.366Z,2.70
2018-09-20T03:05:23.434Z,2.90
2018-09-20T03:07:51.524Z,2.63
2018-09-20T03:10:19.663Z,2.77
2018-09-20T03:12:47.778Z,3.23
2018-09-20T03:15:15.902Z,3.00
2018-09-20T03:17:43.966Z,3.23
2018-09-20T03:20:12.051Z,3.00
2018-09-20T03:22:40.198Z,2.50
2018-09-20T03:25:08.270Z,2.73
2018-09-20T03:27:36.359Z,3.00
2018-09-20T03:30:04.644Z,2.80
2018-09-20T03:32:32.818Z,3.53
2018-09-20T03:35:00.922Z,2.93
2018-09-20T03:37:28.982Z,3.27
2018-09-20T03:39:57.038Z,2.97
2018-09-20T03:42:25.163Z,2.23
2018-09-20T03:44:53.214Z,2.80
2018-09-20T03:47:21.281Z,3.37
2018-09-20T03:49:49.424Z,2.97
2018-09-20T03:52:17.575Z,2.63
2018-09-20T03:54:45.675Z,2.47
2018-09-20T03:57:13.762Z,2.90
2018-09-20T03:59:41.865Z,2.93
2018-09-20T04:02:09.994Z,3.13
2018-09-20T04:04:38.134Z,2.67
2018-09-20T04:07:06.570Z,3.20
2018-09-20T04:09:34.700Z,3.00
2018-09-20T04:12:02.731Z,2.60
2018-09-20T04:14:30.791Z,2.80
2018-09-20T04:16:58.982Z,2.57
2018-09-20T04:19:27.135Z,2.87
2018-09-20T04:21:55.194Z,3.03
2018-09-20T04:24:23.312Z,3.30
2018-09-20T04:26:51.465Z,2.43
2018-09-20T04:29:19.534Z,2.83
2018-09-20T04:31:47.718Z,3.20
2018-09-20T04:34:15.698Z,2.73
2018-09-20T04:36:43.806Z,2.57
2018-09-20T04:39:11.903Z,2.73
2018-09-20T04:41:40.106Z,2.70
2018-09-20T04:44:08.233Z,2.80
2018-09-20T04:46:36.288Z,3.20
2018-09-20T04:49:04.366Z,2.60
2018-09-20T04:51:32.569Z,2.97
2018-09-20T04:54:00.680Z,3.00
2018-09-20T04:56:28.731Z,2.80
2018-09-20T04:58:57.306Z,3.10
2018-09-20T05:01:25.369Z,3.03
2018-09-20T05:03:53.438Z,4.10
2018-09-20T05:06:21.516Z,2.77
2018-09-20T05:08:49.608Z,3.00
2018-09-20T05:11:17.666Z,2.70
2018-09-20T05:13:46.303Z,2.73
2018-09-20T05:16:14.406Z,2.57
2018-09-20T05:18:42.494Z,2.70
2018-09-20T05:21:10.626Z,3.00
2018-09-20T05:23:38.804Z,2.80
2018-09-20T05:26:07.017Z,2.83
2018-09-20T05:28:35.422Z,2.57
2018-09-20T05:31:03.599Z,2.63
2018-09-20T05:33:31.694Z,2.30
2018-09-20T05:35:59.999Z,2.63
2018-09-20T05:38:28.082Z,2.70
2018-09-20T05:40:56.146Z,2.60
2018-09-20T05:43:24.288Z,2.77
2018-09-20T05:45:52.322Z,2.77
2018-09-20T05:48:20.518Z,2.90
2018-09-20T05:50:48.675Z,3.00
2018-09-20T05:53:16.706Z,2.70
2018-09-20T05:55:44.793Z,2.87
2018-09-20T05:58:12.846Z,2.70
2018-09-20T06:00:41.000Z,2.50
2018-09-20T06:03:09.226Z,3.17
2018-09-20T06:05:37.356Z,3.00
2018-09-20T06:08:05.523Z,2.20
2018-09-20T06:10:33.608Z,3.37
2018-09-20T06:13:01.757Z,2.80
2018-09-20T06:15:29.884Z,3.07
2018-09-20T06:17:57.954Z,2.83
2018-09-20T06:20:26.026Z,2.70
2018-09-20T06:22:54.158Z,2.77
2018-09-20T06:25:22.239Z,2.37
2018-09-20T06:27:50.387Z,3.00
2018-09-20T06:30:18.460Z,2.23
2018-09-20T06:32:46.527Z,2.70
2018-09-20T06:35:14.942Z,2.90
2018-09-20T06:37:43.038Z,2.97
2018-09-20T06:40:11.158Z,2.53
2018-09-20T06:42:39.215Z,2.50
2018-09-20T06:45:07.381Z,2.43
2018-09-20T06:47:35.491Z,3.13
2018-09-20T06:50:03.594Z,2.60
2018-09-20T06:52:31.787Z,3.00
2018-09-20T06:54:59.914Z,2.83
2018-09-20T06:57:32.274Z,3.03
2018-09-20T07:00:00.381Z,2.73
2018-09-20T07:02:28.490Z,2.50
2018-09-20T07:04:56.567Z,2.90
2018-09-20T07:07:24.739Z,3.00
2018-09-20T07:09:52.890Z,3.27
2018-09-20T07:12:21.005Z,3.03
2018-09-20T07:14:49.119Z,2.67
2018-09-20T07:17:17.214Z,2.83
2018-09-20T07:19:45.323Z,2.70
2018-09-20T07:22:13.492Z,2.80
2018-09-20T07:24:41.643Z,3.13
2018-09-20T07:27:09.808Z,3.20
2018-09-20T07:29:37.894Z,2.77
2018-09-20T07:32:05.985Z,2.97
2018-09-20T07:34:34.132Z,3.07
2018-09-20T07:37:02.231Z,3.37
2018-09-20T07:39:30.392Z,3.20
2018-09-20T07:41:58.475Z,3.00
2018-09-20T07:44:26.603Z,3.40
2018-09-20T07:46:54.759Z,3.30
2018-09-20T07:49:22.850Z,3.07
2018-09-20T07:51:51.128Z,3.57
2018-09-20T07:54:19.282Z,3.10
2018-09-20T07:56:47.433Z,2.90
2018-09-20T07:59:15.498Z,2.57
2018-09-20T08:01:43.672Z,2.97
2018-09-20T08:04:11.831Z,2.50
2018-09-20T08:06:40.002Z,2.73
2018-09-20T08:09:09.925Z,3.23
2018-09-20T08:11:38.032Z,3.00
2018-09-20T08:14:06.117Z,3.10
2018-09-20T08:16:34.182Z,3.10
2018-09-20T08:19:02.273Z,3.20
2018-09-20T08:21:30.406Z,3.10
2018-09-20T08:23:58.478Z,2.80
2018-09-20T08:26:26.560Z,3.27
2018-09-20T08:28:54.636Z,3.13
2018-09-20T08:31:22.700Z,3.43
2018-09-20T08:33:50.798Z,3.00
2018-09-20T08:36:18.874Z,3.23
2018-09-20T08:38:47.005Z,4.40
2018-09-20T08:41:15.141Z,5.27
2018-09-20T08:43:43.218Z,4.03
2018-09-20T08:46:11.314Z,4.40
2018-09-20T08:48:39.462Z,3.17
2018-09-20T08:51:07.641Z,4.07
2018-09-20T08:53:35.752Z,4.00
2018-09-20T08:56:03.854Z,3.47
2018-09-20T08:58:32.662Z,3.33
2018-09-20T09:01:02.143Z,3.17
2018-09-20T09:03:30.283Z,2.97
2018-09-20T09:05:58.389Z,3.57
2018-09-20T09:08:26.499Z,3.77
2018-09-20T09:10:54.546Z,3.40
2018-09-20T09:13:22.642Z,3.37
2018-09-20T09:15:50.768Z,2.77
2018-09-20T09:18:18.882Z,4.07
2018-09-20T09:20:47.004Z,3.87
2018-09-20T09:23:15.099Z,3.80
2018-09-20T09:25:43.239Z,2.67
2018-09-20T09:28:11.399Z,2.93
2018-09-20T09:30:39.501Z,2.63
2018-09-20T09:33:07.578Z,2.53
2018-09-20T09:36:05.595Z,2.93
2018-09-20T09:38:33.681Z,3.03
2018-09-20T09:41:01.764Z,2.50
2018-09-20T09:43:29.934Z,2.97
2018-09-20T09:45:58.044Z,2.77
2018-09-20T09:48:26.193Z,2.87
2018-09-20T09:50:54.344Z,2.43
2018-09-20T09:53:22.430Z,2.40
2018-09-20T09:55:50.574Z,3.13
2018-09-20T09:58:18.718Z,2.77
2018-09-20T10:00:46.831Z,2.40
2018-09-20T10:03:14.901Z,2.83
2018-09-20T10:05:44.310Z,2.87
2018-09-20T10:08:12.368Z,3.07
2018-09-20T10:10:40.444Z,2.90
2018-09-20T10:13:08.517Z,3.83
2018-09-20T10:15:36.615Z,3.63
2018-09-20T10:18:04.741Z,2.80
2018-09-20T10:20:33.494Z,2.80
2018-09-20T10:23:01.567Z,3.10
2018-09-20T10:25:29.646Z,2.80
2018-09-20T10:27:57.744Z,4.80
2018-09-20T10:30:25.958Z,2.53
2018-09-20T10:32:54.054Z,2.37
2018-09-20T10:35:22.182Z,3.27
2018-09-20T10:37:50.263Z,2.80
2018-09-20T10:40:18.355Z,3.10
2018-09-20T10:42:46.434Z,2.60
2018-09-20T10:45:14.618Z,3.13
2018-09-20T10:47:42.735Z,2.93
2018-09-20T10:50:10.858Z,2.10
2018-09-20T10:52:39.096Z,2.77
2018-09-20T10:55:07.275Z,1.80
2018-09-20T10:57:35.433Z,2.70
2018-09-20T11:00:03.552Z,2.10
2018-09-20T11:02:31.618Z,2.80
2018-09-20T11:04:59.726Z,2.63
2018-09-20T11:07:27.827Z,2.20
2018-09-20T11:09:55.961Z,2.03
2018-09-20T11:12:24.056Z,2.27
2018-09-20T11:14:52.179Z,1.87
2018-09-20T11:17:20.299Z,2.07
2018-09-20T11:19:48.434Z,1.70
2018-09-20T11:22:16.523Z,3.13
2018-09-20T11:24:44.713Z,2.57
2018-09-20T11:27:12.791Z,2.03
2018-09-20T11:29:40.878Z,2.37
2018-09-20T11:32:09.004Z,2.83
2018-09-20T11:34:37.105Z,2.50
2018-09-20T11:37:05.423Z,2.60
2018-09-20T11:39:33.582Z,2.43
2018-09-20T11:42:01.670Z,2.53
2018-09-20T11:44:29.750Z,1.90
2018-09-20T11:46:57.833Z,2.00
2018-09-20T11:49:25.935Z,2.43
2018-09-20T11:51:54.037Z,2.10
2018-09-20T11:54:22.136Z,1.87
2018-09-20T11:56:50.234Z,2.40
2018-09-20T11:59:18.304Z,1.97
2018-09-20T12:01:46.449Z,2.53
2018-09-20T12:04:14.530Z,2.13
2018-09-20T12:06:42.738Z,2.43
2018-09-20T12:09:10.802Z,2.10
2018-09-20T12:11:38.866Z,3.20
2018-09-20T12:14:06.955Z,2.13
2018-09-20T12:16:35.026Z,2.43
2018-09-20T12:19:03.187Z,2.47
2018-09-20T12:21:31.404Z,2.57
2018-09-20T12:23:59.472Z,2.27
2018-09-20T12:26:27.591Z,2.20
2018-09-20T12:28:55.702Z,2.77
2018-09-20T12:31:23.992Z,2.67
2018-09-20T12:33:52.070Z,2.57
2018-09-20T12:36:20.260Z,2.70
2018-09-20T12:38:48.363Z,2.43
2018-09-20T12:41:16.428Z,3.07
2018-09-20T12:43:44.482Z,2.80
2018-09-20T12:46:12.587Z,2.53
2018-09-20T12:48:40.691Z,2.23
2018-09-20T12:51:09.146Z,2.83
2018-09-20T12:53:37.230Z,2.90
2018-09-20T12:56:05.297Z,3.10
2018-09-20T12:58:40.703Z,2.93
2018-09-20T13:01:09.064Z,2.40
2018-09-20T13:03:37.503Z,2.53
2018-09-20T13:06:05.823Z,3.10
2018-09-20T13:08:33.890Z,3.17
2018-09-20T13:11:01.991Z,2.73
2018-09-20T13:13:30.109Z,2.97
2018-09-20T13:15:58.202Z,2.40
2018-09-20T13:18:26.290Z,3.07
2018-09-20T13:20:54.350Z,3.30
2018-09-20T13:23:22.414Z,2.80
2018-09-20T13:25:50.511Z,2.43
2018-09-20T13:28:18.578Z,2.83
2018-09-20T13:30:46.646Z,2.40
2018-09-20T13:33:14.719Z,2.80
2018-09-20T13:35:42.763Z,2.73
2018-09-20T13:38:10.831Z,2.70
2018-09-20T13:40:38.896Z,2.30
2018-09-20T13:43:07.050Z,2.60
2018-09-20T13:45:35.041Z,2.53
2018-09-20T13:48:03.100Z,2.40
2018-09-20T13:50:31.180Z,2.53
2018-09-20T13:53:00.413Z,2.07
2018-09-20T13:55:31.321Z,2.00
2018-09-20T13:57:59.456Z,1.90
2018-09-20T14:00:27.727Z,2.70
2018-09-20T14:02:55.921Z,3.07
2018-09-20T14:05:24.294Z,2.40
2018-09-20T14:07:52.363Z,2.40
2018-09-20T14:10:20.890Z,2.47
2018-09-20T14:12:49.035Z,2.30
2018-09-20T14:15:17.137Z,1.97
2018-09-20T14:17:45.176Z,2.27
2018-09-20T14:20:13.295Z,2.77
2018-09-20T14:22:41.394Z,2.57
2018-09-20T14:25:09.443Z,2.53
2018-09-20T14:27:37.498Z,2.37
2018-09-20T14:30:05.668Z,2.40
2018-09-20T14:32:33.744Z,2.20
2018-09-20T14:35:01.830Z,1.90
2018-09-20T14:37:29.943Z,1.83
2018-09-20T14:39:58.143Z,2.00
2018-09-20T14:42:26.394Z,2.07
2018-09-20T14:44:54.439Z,1.77
2018-09-20T14:47:22.519Z,2.17
2018-09-20T14:49:50.558Z,2.50
2018-09-20T14:52:18.626Z,2.37
2018-09-20T14:54:46.702Z,2.17
2018-09-20T14:57:14.778Z,2.10
2018-09-20T14:59:42.938Z,1.77
2018-09-20T15:02:11.072Z,1.77
2018-09-20T15:04:39.164Z,2.00
2018-09-20T15:07:07.260Z,1.80
2018-09-20T15:09:35.379Z,1.90
2018-09-20T15:12:04.741Z,1.80
2018-09-20T15:14:33.452Z,1.37
2018-09-20T15:17:01.847Z,1.30
2018-09-20T15:19:30.022Z,1.63
2018-09-20T15:21:58.127Z,1.70
2018-09-20T15:24:26.354Z,1.87
2018-09-20T15:26:54.557Z,1.97
2018-09-20T15:29:22.634Z,1.50
2018-09-20T15:31:51.085Z,2.00
2018-09-20T15:34:22.275Z,1.80
2018-09-20T15:36:51.847Z,2.30
2018-09-20T15:39:21.036Z,2.37
2018-09-20T15:41:49.247Z,1.83
2018-09-20T15:44:17.711Z,2.13
2018-09-20T15:46:45.919Z,1.80
2018-09-20T15:49:14.099Z,2.47
2018-09-20T15:51:42.251Z,1.57
2018-09-20T15:54:10.362Z,1.93
2018-09-20T15:56:38.486Z,1.97
2018-09-20T15:59:06.897Z,2.20
2018-09-20T16:01:35.244Z,2.13
2018-09-20T16:04:03.652Z,2.03
2018-09-20T16:06:31.948Z,2.00
2018-09-20T16:09:00.287Z,2.30
2018-09-20T16:11:28.399Z,2.90
2018-09-20T16:13:56.778Z,2.43
2018-09-20T16:16:24.875Z,5.10
2018-09-20T16:18:53.419Z,4.20
2018-09-20T16:21:21.839Z,3.13
2018-09-20T16:23:51.201Z,4.27
2018-09-20T16:26:19.339Z,4.23
2018-09-20T16:31:10.180Z,3.93
2018-09-20T16:35:57.406Z,3.53
2018-09-20T16:39:33.567Z,3.30
2018-09-20T16:42:03.319Z,2.83
2018-09-20T16:44:31.430Z,3.57
2018-09-20T16:46:59.578Z,3.40
2018-09-20T16:49:27.750Z,3.60
2018-09-20T16:51:55.879Z,3.07
2018-09-20T16:54:24.012Z,3.10
2018-09-20T16:56:53.306Z,3.23
2018-09-20T16:59:21.414Z,3.30
2018-09-20T17:01:49.627Z,3.60
2018-09-20T17:04:17.867Z,3.20
2018-09-20T17:06:46.087Z,3.70
2018-09-20T17:09:14.955Z,3.80
2018-09-20T17:11:43.104Z,4.30
2018-09-20T17:14:11.248Z,4.10
2018-09-20T17:16:39.478Z,4.10
2018-09-20T17:19:08.331Z,4.53
2018-09-20T17:21:36.518Z,3.63
2018-09-20T17:24:04.643Z,3.47
2018-09-20T17:26:32.768Z,3.67
2018-09-20T17:29:00.879Z,3.27
2018-09-20T17:31:29.039Z,3.23
2018-09-20T17:33:57.148Z,3.27
2018-09-20T17:36:25.750Z,3.20
2018-09-20T17:38:54.689Z,2.40
2018-09-20T17:41:26.390Z,2.60
2018-09-20T17:43:58.197Z,2.70
2018-09-20T17:46:26.254Z,2.40
2018-09-20T17:48:54.370Z,3.20
2018-09-20T17:51:22.694Z,2.57
2018-09-20T17:53:51.407Z,2.80
2018-09-20T17:56:19.907Z,2.67
2018-09-20T17:58:48.442Z,2.53
2018-09-20T18:01:16.791Z,2.67
2018-09-20T18:31:00.613Z,2.10
2018-09-20T18:33:28.726Z,1.80
2018-09-20T18:36:00.267Z,1.93
2018-09-20T18:38:28.399Z,2.23
2018-09-20T18:40:56.594Z,2.23
2018-09-20T18:43:24.731Z,1.97
2018-09-20T18:45:54.718Z,1.97
2018-09-20T18:48:24.389Z,1.93
2018-09-20T18:50:54.804Z,1.93
2018-09-20T18:53:24.618Z,2.10
2018-09-20T18:55:52.778Z,2.17
2018-09-20T18:58:20.895Z,2.20
2018-09-20T19:00:52.635Z,2.00
2018-09-20T19:03:21.613Z,2.23
2018-09-20T19:05:58.846Z,2.17
2018-09-20T19:08:50.033Z,1.80
2018-09-20T19:11:23.290Z,2.50
2018-09-20T19:13:52.009Z,2.30
2018-09-20T19:16:30.855Z,2.40
2018-09-20T19:18:58.978Z,2.17
2018-09-20T19:21:27.386Z,1.73
2018-09-20T19:23:55.620Z,2.27
2018-09-20T19:26:24.082Z,1.90
2018-09-20T19:28:53.202Z,2.30
2018-09-20T19:31:25.178Z,1.90
2018-09-20T19:33:53.593Z,2.53
2018-09-20T19:36:26.088Z,2.40
2018-09-20T19:38:57.985Z,2.03
2018-09-20T19:41:26.579Z,2.23
2018-09-20T19:43:55.149Z,2.03
2018-09-20T19:46:25.784Z,2.20
2018-09-20T19:48:54.249Z,2.17
2018-09-20T19:51:23.339Z,1.90
2018-09-20T19:53:51.484Z,1.83
2018-09-20T19:56:19.698Z,2.17
2018-09-20T19:58:49.711Z,2.33
2018-09-20T20:01:28.392Z,1.93
2018-09-20T20:03:56.858Z,2.17
2018-09-20T20:06:25.598Z,2.30
2018-09-20T20:08:53.936Z,2.67
2018-09-20T20:11:35.932Z,2.23
2018-09-20T20:14:04.745Z,2.10
2018-09-20T20:16:35.600Z,2.30
2018-09-20T20:19:06.775Z,2.20
2018-09-20T20:21:35.076Z,2.07
2018-09-20T20:24:08.156Z,2.80
2018-09-20T20:26:38.389Z,1.97
2018-09-20T20:29:06.870Z,2.17
2018-09-20T20:31:34.975Z,1.93
2018-09-20T20:34:05.932Z,2.17
2018-09-20T20:36:34.491Z,2.33
2018-09-20T20:39:15.163Z,2.60
2018-09-20T20:41:54.777Z,1.63
2018-09-20T20:47:45.235Z,2.30
2018-09-20T20:50:13.355Z,2.03
2018-09-20T20:52:41.656Z,2.17
2018-09-20T20:55:10.038Z,1.93
2018-09-20T20:57:41.044Z,2.10
2018-09-20T21:00:09.246Z,1.80
2018-09-20T21:02:37.375Z,1.77
2018-09-20T21:05:05.783Z,1.97
2018-09-20T21:07:34.568Z,2.07
2018-09-20T21:10:03.151Z,2.20
2018-09-20T21:12:31.295Z,2.63
2018-09-20T21:15:00.667Z,2.10
2018-09-20T21:17:28.971Z,2.53
2018-09-20T21:19:57.726Z,1.80
2018-09-20T21:22:25.890Z,2.13
2018-09-20T21:24:54.158Z,1.90
2018-09-20T21:27:22.320Z,1.60
2018-09-20T21:29:50.462Z,2.00
2018-09-20T21:32:18.559Z,2.10
2018-09-20T21:34:46.667Z,1.80
2018-09-20T21:37:14.814Z,2.00
2018-09-20T21:39:43.979Z,2.07
2018-09-20T21:42:12.858Z,2.50
2018-09-20T21:44:41.095Z,2.27
2018-09-20T21:47:10.472Z,1.97
2018-09-20T21:49:38.923Z,2.13
2018-09-20T21:52:07.195Z,1.90
2018-09-20T21:54:35.383Z,1.80
2018-09-20T21:57:03.578Z,2.00
2018-09-20T21:59:31.807Z,1.93
2018-09-20T22:02:01.430Z,1.97
2018-09-20T22:04:32.268Z,2.23
2018-09-20T22:07:00.853Z,2.33
2018-09-20T22:09:29.438Z,2.50
2018-09-20T22:11:58.470Z,2.03
2018-09-20T22:14:26.546Z,2.50
2018-09-20T22:16:54.682Z,2.13
2018-09-20T22:19:22.794Z,2.10
2018-09-20T22:21:50.912Z,1.90
2018-09-20T22:24:18.984Z,1.70
2018-09-20T22:26:47.064Z,2.10
2018-09-20T22:29:15.149Z,1.80
2018-09-20T22:31:43.255Z,1.90
2018-09-20T22:34:11.380Z,2.10
2018-09-20T22:36:39.478Z,2.00
2018-09-20T22:39:10.034Z,1.90
2018-09-20T22:41:38.364Z,2.37
2018-09-20T22:44:06.447Z,1.80
2018-09-20T22:46:34.513Z,1.63
2018-09-20T22:49:02.669Z,2.40
2018-09-20T22:51:30.784Z,2.30
2018-09-20T22:53:58.838Z,2.40
2018-09-20T22:56:26.926Z,1.90
2018-09-20T22:58:55.072Z,1.90
2018-09-20T23:01:23.154Z,2.33
2018-09-20T23:03:51.702Z,2.13
2018-09-20T23:06:19.775Z,1.80
2018-09-20T23:08:47.890Z,1.57
2018-09-20T23:11:15.926Z,1.90
2018-09-20T23:13:44.001Z,1.50
2018-09-20T23:16:12.060Z,1.87
2018-09-20T23:18:40.129Z,2.03
2018-09-20T23:21:08.198Z,1.53
2018-09-20T23:23:36.290Z,2.00
2018-09-20T23:26:04.379Z,1.50
2018-09-20T23:28:32.609Z,1.60
2018-09-20T23:31:00.694Z,2.00
2018-09-20T23:33:28.759Z,1.70
2018-09-20T23:35:56.824Z,1.70
2018-09-20T23:38:24.894Z,1.90
2018-09-20T23:40:52.975Z,1.47
2018-09-20T23:43:21.032Z,1.90
2018-09-20T23:45:49.102Z,1.30
2018-09-20T23:48:17.176Z,1.70
2018-09-20T23:50:45.274Z,1.53
2018-09-20T23:53:13.350Z,1.43
2018-09-20T23:55:41.434Z,1.50
2018-09-20T23:58:09.491Z,1.60
